createdAt,value
2022-11-07T00:00:23.166Z,97948.50
2022-11-07T00:05:25.035Z,97950.59
2022-11-07T00:10:26.969Z,97950.94
2022-11-07T00:15:29.322Z,97938.50
2022-11-07T00:20:31.273Z,97933.00
2022-11-07T00:25:33.177Z,97929.28
2022-11-07T00:30:35.307Z,97951.44
2022-11-07T00:35:41.866Z,97939.16
2022-11-07T00:40:44.153Z,97956.13
2022-11-07T00:45:46.145Z,97961.16
2022-11-07T00:50:48.267Z,97960.19
2022-11-07T00:55:50.106Z,97975.72
2022-11-07T01:00:51.934Z,97969.56
2022-11-07T01:06:02.532Z,97961.63
2022-11-07T01:11:07.237Z,97961.47
2022-11-07T01:16:12.127Z,97958.72
2022-11-07T01:21:16.690Z,97951.78
2022-11-07T01:26:18.945Z,97947.41
2022-11-07T01:31:21.460Z,97914.25
2022-11-07T01:36:23.504Z,97941.25
2022-11-07T01:41:28.982Z,97919.56
2022-11-07T01:46:45.140Z,97916.50
2022-11-07T01:52:04.261Z,97911.81
2022-11-07T01:57:16.023Z,97912.94
2022-11-07T02:02:18.257Z,97933.13
2022-11-07T02:07:23.481Z,97925.69
2022-11-07T02:12:27.358Z,97927.31
2022-11-07T02:17:29.759Z,97926.47
2022-11-07T02:22:50.672Z,97934.06
2022-11-07T02:28:00.002Z,97921.91
2022-11-07T02:33:03.039Z,97928.03
2022-11-07T02:38:11.255Z,97926.19
2022-11-07T02:43:15.221Z,97937.31
2022-11-07T02:48:17.973Z,97928.84
2022-11-07T02:53:20.004Z,97922.69
2022-11-07T02:58:21.771Z,97917.16
2022-11-07T03:03:27.267Z,97919.56
2022-11-07T03:08:29.080Z,97930.00
2022-11-07T03:13:30.995Z,97931.63
2022-11-07T03:18:34.132Z,97936.13
2022-11-07T03:23:36.842Z,97941.59
2022-11-07T03:28:38.713Z,97949.50
2022-11-07T03:33:40.516Z,97960.94
2022-11-07T03:38:42.345Z,97964.66
2022-11-07T03:43:47.694Z,97973.66
2022-11-07T03:48:49.667Z,97977.91
2022-11-07T03:53:51.536Z,97988.75
2022-11-07T03:58:53.337Z,98005.06
2022-11-07T04:03:56.318Z,98009.44
2022-11-07T04:09:02.159Z,98023.31
2022-11-07T04:14:22.353Z,98029.56
2022-11-07T04:19:26.660Z,98026.19
2022-11-07T04:24:29.632Z,98036.66
2022-11-07T04:29:31.438Z,98037.47
2022-11-07T04:34:33.301Z,98036.66
2022-11-07T04:39:35.089Z,98047.81
2022-11-07T04:44:37.036Z,98052.69
2022-11-07T04:49:38.872Z,98045.59
2022-11-07T04:54:49.742Z,98050.44
2022-11-07T04:59:51.591Z,98059.53
2022-11-07T05:04:53.537Z,98057.16
2022-11-07T05:09:55.594Z,98056.91
2022-11-07T05:14:58.580Z,98057.47
2022-11-07T05:20:00.400Z,98069.31
2022-11-07T05:25:02.191Z,98068.59
2022-11-07T05:30:05.870Z,98069.25
2022-11-07T05:35:08.258Z,98071.19
2022-11-07T05:40:10.894Z,98076.94
2022-11-07T05:45:12.711Z,98082.69
2022-11-07T05:50:25.024Z,98088.63
2022-11-07T05:55:27.060Z,98094.56
2022-11-07T06:00:28.924Z,98100.16
2022-11-07T06:05:31.060Z,98094.50
2022-11-07T06:10:32.906Z,98117.75
2022-11-07T06:15:36.380Z,98121.28
2022-11-07T06:20:38.294Z,98117.75
2022-11-07T06:25:40.286Z,98117.31
2022-11-07T06:30:42.823Z,98113.09
2022-11-07T06:35:45.766Z,98120.47
2022-11-07T06:40:47.871Z,98126.09
2022-11-07T06:45:49.797Z,98131.56
2022-11-07T06:50:59.595Z,98132.53
2022-11-07T06:56:02.896Z,98129.78
2022-11-07T07:01:13.698Z,98137.38
2022-11-07T07:06:17.034Z,98140.84
2022-11-07T07:11:19.123Z,98152.06
2022-11-07T07:16:20.915Z,98147.63
2022-11-07T07:21:22.782Z,98155.28
2022-11-07T07:26:24.555Z,98172.38
2022-11-07T07:31:31.045Z,98172.13
2022-11-07T07:36:33.254Z,98183.53
2022-11-07T07:41:39.920Z,98180.38
2022-11-07T07:46:42.204Z,98172.06
2022-11-07T07:51:44.051Z,98172.44
2022-11-07T07:56:45.844Z,98167.94
2022-11-07T08:01:52.204Z,98171.56
2022-11-07T08:06:57.418Z,98179.22
2022-11-07T08:11:59.296Z,98180.41
2022-11-07T08:17:01.460Z,98185.78
2022-11-07T08:22:03.493Z,98192.75
2022-11-07T08:27:05.519Z,98186.94
2022-11-07T08:32:10.111Z,98188.91
2022-11-07T08:37:11.935Z,98185.34
2022-11-07T08:42:13.989Z,98180.34
2022-11-07T08:47:16.057Z,98181.63
2022-11-07T08:52:18.104Z,98179.31
2022-11-07T08:57:20.019Z,98173.78
2022-11-07T09:07:44.062Z,98181.19
2022-11-07T09:12:50.361Z,98181.50
2022-11-07T09:17:52.389Z,98181.13
2022-11-07T09:23:04.212Z,98181.56
2022-11-07T09:28:06.084Z,98189.81
2022-11-07T09:33:14.400Z,98188.31
2022-11-07T09:38:18.636Z,98183.91
2022-11-07T09:44:05.125Z,98183.69
2022-11-07T09:49:29.043Z,98181.03
2022-11-07T09:54:38.085Z,98185.25
2022-11-07T09:59:46.270Z,98177.69
2022-11-07T10:04:56.943Z,98171.75
2022-11-07T10:10:19.316Z,98176.53
2022-11-07T10:16:08.292Z,98173.50
2022-11-07T10:26:37.433Z,98168.25
2022-11-07T10:31:44.524Z,98173.56
2022-11-07T10:36:46.540Z,98181.47
2022-11-07T10:42:09.668Z,98171.34
2022-11-07T10:47:26.688Z,98181.56
2022-11-07T10:52:29.847Z,98184.97
2022-11-07T10:57:34.515Z,98180.75
2022-11-07T11:02:48.356Z,98183.72
2022-11-07T11:07:51.054Z,98185.97
2022-11-07T11:12:53.389Z,98184.63
2022-11-07T11:18:21.633Z,98172.88
2022-11-07T11:23:26.939Z,98163.72
2022-11-07T11:28:34.898Z,98163.81
2022-11-07T11:33:45.344Z,98168.31
2022-11-07T11:38:54.964Z,98160.16
2022-11-07T11:44:37.295Z,98154.94
2022-11-07T11:49:55.065Z,98158.53
2022-11-07T11:55:00.525Z,98155.47
2022-11-07T12:00:11.734Z,98161.66
2022-11-07T12:05:32.181Z,98151.63
2022-11-07T12:11:00.055Z,98148.38
2022-11-07T12:16:44.030Z,98154.41
2022-11-07T12:21:48.537Z,98155.56
2022-11-07T12:27:14.839Z,98148.72
2022-11-07T12:32:38.252Z,98145.50
2022-11-07T12:38:17.600Z,98130.88
2022-11-07T12:43:31.183Z,98136.06
2022-11-07T12:49:11.435Z,98131.69
2022-11-07T12:54:19.008Z,98137.50
2022-11-07T12:59:25.872Z,98136.69
2022-11-07T13:04:42.366Z,98144.34
2022-11-07T13:09:56.705Z,98137.16
2022-11-07T13:14:58.991Z,98130.78
2022-11-07T13:20:39.151Z,98145.88
2022-11-07T13:25:41.282Z,98143.72
2022-11-07T13:30:55.945Z,98147.75
2022-11-07T13:36:12.004Z,98145.59
2022-11-07T13:41:15.960Z,98147.03
2022-11-07T13:46:32.140Z,98150.28
2022-11-07T13:51:38.957Z,98154.31
2022-11-07T13:56:51.333Z,98156.38
2022-11-07T14:01:57.325Z,98165.25
2022-11-07T14:07:03.162Z,98168.50
2022-11-07T14:12:05.295Z,98166.06
2022-11-07T14:17:15.723Z,98173.06
2022-11-07T14:22:26.308Z,98176.31
2022-11-07T14:27:28.103Z,98177.31
2022-11-07T14:32:32.157Z,98175.06
2022-11-07T14:37:34.989Z,98173.81
2022-11-07T14:42:38.355Z,98184.56
2022-11-07T14:47:40.574Z,98177.13
2022-11-07T14:52:48.108Z,98176.66
2022-11-07T14:57:51.065Z,98180.63
2022-11-07T15:02:55.653Z,98175.94
2022-11-07T15:07:59.710Z,98178.09
2022-11-07T15:13:04.753Z,98179.25
2022-11-07T15:18:07.305Z,98176.03
2022-11-07T15:23:12.263Z,98173.59
2022-11-07T15:28:26.788Z,98181.59
2022-11-07T15:33:33.058Z,98181.78
2022-11-07T15:38:34.891Z,98181.94
2022-11-07T15:43:36.763Z,98188.13
2022-11-07T15:48:41.319Z,98182.31
2022-11-07T15:53:43.419Z,98177.44
2022-11-07T15:58:45.395Z,98180.22
2022-11-07T16:03:47.266Z,98184.16
2022-11-07T16:08:49.108Z,98197.53
2022-11-07T16:13:51.150Z,98201.81
2022-11-07T16:18:54.062Z,98203.84
2022-11-07T16:23:55.912Z,98203.28
2022-11-07T16:28:58.205Z,98211.16
2022-11-07T16:34:00.165Z,98213.63
2022-11-07T16:39:05.467Z,98215.94
2022-11-07T16:44:07.461Z,98217.91
2022-11-07T16:49:15.875Z,98219.88
2022-11-07T16:54:18.013Z,98219.06
2022-11-07T16:59:22.809Z,98220.03
2022-11-07T17:04:24.616Z,98223.28
2022-11-07T17:09:28.091Z,98222.31
2022-11-07T17:14:31.229Z,98229.13
2022-11-07T17:19:33.817Z,98218.38
2022-11-07T17:24:35.689Z,98219.34
2022-11-07T17:29:37.549Z,98222.13
2022-11-07T17:34:39.446Z,98230.09
2022-11-07T17:39:41.306Z,98232.06
2022-11-07T17:44:43.203Z,98236.47
2022-11-07T17:49:46.401Z,98238.41
2022-11-07T17:54:48.587Z,98237.78
2022-11-07T17:59:50.462Z,98239.75
2022-11-07T18:04:52.319Z,98235.88
2022-11-07T18:09:54.963Z,98249.22
2022-11-07T18:14:57.153Z,98240.94
2022-11-07T18:19:59.022Z,98242.91
2022-11-07T18:25:00.918Z,98242.25
2022-11-07T18:30:04.727Z,98236.44
2022-11-07T18:35:06.704Z,98238.19
2022-11-07T18:40:09.458Z,98234.31
2022-11-07T18:45:12.920Z,98239.50
2022-11-07T18:50:14.884Z,98233.50
2022-11-07T18:55:16.735Z,98237.72
2022-11-07T19:00:18.732Z,98242.75
2022-11-07T19:05:20.705Z,98242.75
2022-11-07T19:10:22.823Z,98237.53
2022-11-07T19:15:27.164Z,98231.72
2022-11-07T19:20:29.041Z,98243.09
2022-11-07T19:25:30.937Z,98251.88
2022-11-07T19:30:33.984Z,98247.00
2022-11-07T19:35:38.231Z,98247.97
2022-11-07T19:40:41.524Z,98252.53
2022-11-07T19:45:44.125Z,98247.34
2022-11-07T19:50:48.437Z,98250.91
2022-11-07T19:55:50.363Z,98249.94
2022-11-07T20:00:52.492Z,98256.94
2022-11-07T20:05:54.618Z,98254.50
2022-11-07T20:10:56.440Z,98249.28
2022-11-07T20:15:59.303Z,98252.88
2022-11-07T20:21:04.244Z,98251.09
2022-11-07T20:26:33.074Z,98256.94
2022-11-07T20:31:36.926Z,98253.50
2022-11-07T20:36:39.236Z,98258.72
2022-11-07T20:41:42.643Z,98262.13
2022-11-07T20:46:45.975Z,98261.31
2022-11-07T20:51:47.825Z,98270.09
2022-11-07T20:56:49.904Z,98272.84
2022-11-07T21:01:52.915Z,98272.03
2022-11-07T21:06:54.941Z,98272.03
2022-11-07T21:11:56.900Z,98283.25
2022-11-07T21:16:58.895Z,98269.63
2022-11-07T21:22:00.686Z,98268.81
2022-11-07T21:27:02.750Z,98269.63
2022-11-07T21:32:07.448Z,98265.88
2022-11-07T21:37:09.848Z,98273.31
2022-11-07T21:42:13.128Z,98275.13
2022-11-07T21:47:15.110Z,98278.69
2022-11-07T21:52:17.418Z,98273.31
2022-11-07T21:57:19.208Z,98273.16
2022-11-07T22:02:21.155Z,98271.19
2022-11-07T22:07:23.411Z,98277.22
2022-11-07T22:12:25.232Z,98276.56
2022-11-07T22:17:27.149Z,98272.19
2022-11-07T22:22:31.366Z,98272.00
2022-11-07T22:27:33.162Z,98273.63
2022-11-07T22:32:34.937Z,98278.19
2022-11-07T22:37:36.914Z,98268.94
2022-11-07T22:42:38.725Z,98267.50
2022-11-07T22:47:40.762Z,98271.25
2022-11-07T22:52:45.547Z,98268.81
2022-11-07T22:57:47.371Z,98266.38
2022-11-07T23:02:49.241Z,98263.59
2022-11-07T23:07:52.916Z,98273.03
2022-11-07T23:12:54.647Z,98272.84
2022-11-07T23:17:56.400Z,98273.66
2022-11-07T23:22:58.347Z,98268.94
2022-11-07T23:28:00.135Z,98268.78
2022-11-07T23:33:01.853Z,98259.03
2022-11-07T23:38:04.097Z,98259.66
2022-11-07T23:43:06.006Z,98258.03
2022-11-07T23:48:31.868Z,98262.44
2022-11-07T23:53:53.556Z,98253.81
2022-11-07T23:59:14.503Z,98253.00
